Time;durP1;ratioP1;P1;durP2;ratioP2;P2;SDS_P1;SDS_P2;PMS_P1;PMS_P2;Temp;Humidity;BMP_temperature;BMP_pressure;BME280_temperature;BME280_humidity;BME280_pressure;Samples;Min_cycle;Max_cycle;Signal;HPM_P1;HPM_P2
2021/12/07 00:00:22;;;;;;;;;;;;;;;-0.15;85.16;95813.34;4995480;28;19954;-75
2021/12/07 00:02:49;;;;;;;;;;;;;;;-0.12;85.35;95813.00;5013734;28;19987;-75
2021/12/07 00:05:15;;;;;;;;;;;;;;;-0.08;85.19;95803.97;5014252;28;19958;-75
2021/12/07 00:07:43;;;;;;;;;;;;;;;-0.04;85.04;95805.25;5013997;28;20019;-75
2021/12/07 00:10:10;;;;;;;;;;;;;;;0.01;84.72;95802.97;4998898;28;20007;-75
2021/12/07 00:12:39;;;;;;;;;;;;;;;0.02;84.65;95801.97;5013692;28;19958;-78
2021/12/07 00:15:06;;;;;;;;;;;;;;;0.01;85.05;95797.00;5013626;28;19951;-78
2021/12/07 00:17:32;;;;;;;;;;;;;;;0.05;85.00;95798.28;4996618;28;19961;-78
2021/12/07 00:19:59;;;;;;;;;;;;;;;0.09;85.08;95797.78;4979975;28;19956;-77
2021/12/07 00:22:25;;;;;;;;;;;;;;;0.11;84.80;95795.03;5013985;28;19965;-77
2021/12/07 00:24:51;;;;;;;;;;;;;;;0.12;85.14;95796.63;4996071;28;19976;-77
2021/12/07 00:27:18;;;;;;;;;;;;;;;0.07;85.14;95799.72;5014095;28;19950;-77
2021/12/07 00:29:44;;;;;;;;;;;;;;;0.02;85.54;95796.81;5013493;28;19955;-77
2021/12/07 00:37:44;;;;;;;;;;;;;;;-0.03;86.24;95805.06;4977581;28;19963;-77
2021/12/07 00:40:12;;;;;;;;;;;;;;;-0.03;86.42;95807.66;5013725;28;19957;-77
2021/12/07 00:42:38;;;;;;;;;;;;;;;-0.01;86.22;95803.13;5013280;28;19997;-77
2021/12/07 00:45:04;;;;;;;;;;;;;;;-0.04;86.93;95800.09;5013511;28;20404;-78
2021/12/07 00:47:30;;;;;;;;;;;;;;;-0.10;87.70;95805.91;4995799;28;20051;-78
2021/12/07 00:49:56;;;;;;;;;;;;;;;-0.18;88.14;95801.59;5013224;28;20317;-75
2021/12/07 00:52:22;;;;;;;;;;;;;;;-0.21;88.53;95805.31;4995882;28;20046;-78
2021/12/07 00:54:48;;;;;;;;;;;;;;;-0.23;89.20;95804.66;4979972;28;19961;-79
2021/12/07 00:57:14;;;;;;;;;;;;;;;-0.23;88.89;95801.31;5013225;28;19981;-79
2021/12/07 00:59:40;;;;;;;;;;;;;;;-0.24;89.90;95809.97;5013446;28;19980;-79
2021/12/07 01:02:06;;;;;;;;;;;;;;;-0.25;90.10;95808.38;4995902;28;20413;-79
2021/12/07 01:04:33;;;;;;;;;;;;;;;-0.23;90.56;95804.66;5013475;28;19963;-79
2021/12/07 01:07:03;;;;;;;;;;;;;;;-0.27;91.35;95795.66;4996264;28;19961;-79
2021/12/07 01:25:44;;;;;;;;;;;;;;;-0.19;93.84;95819.78;5017117;28;20345;-77
2021/12/07 01:28:23;;;;;;;;;;;;;;;-0.19;94.85;95825.72;5016310;28;20394;-76
2021/12/07 01:38:39;;;;;;;;;;;;;;;-0.22;94.22;95816.56;5000559;28;19961;-78
2021/12/07 01:41:23;;;;;;;;;;;;;;;-0.22;95.10;95818.34;4998803;28;19956;-78
2021/12/07 01:59:51;;;;;;;;;;;;;;;-0.15;95.09;95813.34;5015916;28;19960;-75
2021/12/07 02:02:19;;;;;;;;;;;;;;;-0.13;94.90;95813.97;5015708;28;19970;-75
2021/12/07 02:04:45;;;;;;;;;;;;;;;-0.09;94.03;95815.25;5015677;28;19956;-76
2021/12/07 02:07:11;;;;;;;;;;;;;;;-0.02;93.55;95818.78;5015799;28;19958;-75
2021/12/07 02:09:40;;;;;;;;;;;;;;;0.02;94.18;95816.66;5015129;28;19965;-78
2021/12/07 02:12:07;;;;;;;;;;;;;;;0.07;93.44;95829.84;5015893;28;19958;-79
2021/12/07 02:14:33;;;;;;;;;;;;;;;0.06;93.94;95831.59;5015609;28;20323;-78
2021/12/07 02:17:03;;;;;;;;;;;;;;;0.05;93.86;95830.00;5015497;28;19958;-78
2021/12/07 02:19:31;;;;;;;;;;;;;;;0.05;93.88;95829.22;5015591;28;19952;-78
2021/12/07 02:21:59;;;;;;;;;;;;;;;0.03;94.19;95833.75;5015823;28;19957;-78
2021/12/07 02:24:24;;;;;;;;;;;;;;;0.02;94.02;95832.91;5015073;28;19961;-78
2021/12/07 02:26:50;;;;;;;;;;;;;;;0.06;93.79;95830.81;5015528;28;19962;-78
2021/12/07 02:29:18;;;;;;;;;;;;;;;0.09;94.10;95835.66;5015248;28;19966;-77
2021/12/07 02:31:44;;;;;;;;;;;;;;;0.13;93.52;95840.31;5015355;28;19958;-79
2021/12/07 02:34:10;;;;;;;;;;;;;;;0.14;92.93;95834.16;5015242;28;19954;-78
2021/12/07 02:36:36;;;;;;;;;;;;;;;0.18;93.02;95826.91;4998071;28;20319;-78
2021/12/07 02:39:09;;;;;;;;;;;;;;;0.21;93.20;95831.75;4997973;28;20000;-78
2021/12/07 02:41:35;;;;;;;;;;;;;;;0.25;93.43;95839.91;5015331;28;19957;-78
2021/12/07 02:44:05;;;;;;;;;;;;;;;0.27;93.16;95828.47;4997601;28;19974;-78
2021/12/07 02:46:31;;;;;;;;;;;;;;;0.33;92.64;95843.25;5015166;28;19954;-79
2021/12/07 02:48:57;;;;;;;;;;;;;;;0.36;92.58;95840.38;5014919;28;19969;-79
2021/12/07 02:51:24;;;;;;;;;;;;;;;0.41;92.48;95845.00;4981316;28;19986;-78
2021/12/07 02:53:49;;;;;;;;;;;;;;;0.46;92.21;95841.91;4997287;28;19963;-78
2021/12/07 02:56:16;;;;;;;;;;;;;;;0.48;92.02;95847.72;5015039;28;19962;-77
2021/12/07 02:58:43;;;;;;;;;;;;;;;0.50;91.99;95849.13;5014854;28;19958;-76
2021/12/07 03:01:16;;;;;;;;;;;;;;;0.54;91.93;95865.88;5014739;28;20445;-78
2021/12/07 03:04:00;;;;;;;;;;;;;;;0.56;91.92;95863.94;5014621;28;19969;-78
2021/12/07 03:06:43;;;;;;;;;;;;;;;0.59;91.71;95866.19;4997618;28;20420;-78
2021/12/07 03:25:58;;;;;;;;;;;;;;;0.55;89.58;95857.19;4996940;28;19952;-77
2021/12/07 03:28:24;;;;;;;;;;;;;;;0.55;89.17;95866.72;4983178;28;20401;-77
2021/12/07 03:30:50;;;;;;;;;;;;;;;0.52;88.84;95869.63;4996990;28;19953;-77
2021/12/07 03:33:16;;;;;;;;;;;;;;;0.52;88.56;95877.34;5014038;28;19962;-77
2021/12/07 03:35:42;;;;;;;;;;;;;;;0.49;88.81;95875.94;5013497;28;20416;-78
2021/12/07 03:38:11;;;;;;;;;;;;;;;0.51;88.54;95873.97;5014270;28;20027;-78
2021/12/07 03:40:37;;;;;;;;;;;;;;;0.51;88.57;95871.41;4996359;28;19964;-78
2021/12/07 03:43:04;;;;;;;;;;;;;;;0.51;88.56;95879.13;5013866;28;19979;-78
2021/12/07 03:45:34;;;;;;;;;;;;;;;0.49;88.48;95881.09;4996770;28;19961;-79
2021/12/07 03:48:01;;;;;;;;;;;;;;;0.49;88.69;95880.28;4996332;28;19953;-78
2021/12/07 03:50:27;;;;;;;;;;;;;;;0.45;89.14;95884.16;5014071;28;19960;-78
2021/12/07 03:52:53;;;;;;;;;;;;;;;0.44;90.33;95883.34;5014242;28;19962;-78
2021/12/07 03:55:20;;;;;;;;;;;;;;;0.44;90.32;95880.75;5013866;28;19990;-81
2021/12/07 03:57:46;;;;;;;;;;;;;;;0.44;90.56;95883.34;4996292;28;19960;-78
2021/12/07 04:00:14;;;;;;;;;;;;;;;0.46;90.52;95891.72;5014374;28;19957;-78
2021/12/07 04:02:41;;;;;;;;;;;;;;;0.47;90.55;95895.94;4996159;28;19968;-78
2021/12/07 04:05:12;;;;;;;;;;;;;;;0.49;90.67;95901.72;4996367;28;19960;-76
2021/12/07 04:07:38;;;;;;;;;;;;;;;0.48;90.56;95901.88;5014019;28;19979;-76
2021/12/07 04:10:06;;;;;;;;;;;;;;;0.50;90.55;95903.31;5013516;28;19984;-77
2021/12/07 04:12:32;;;;;;;;;;;;;;;0.53;90.35;95912.50;5014102;28;19958;-78
2021/12/07 04:14:58;;;;;;;;;;;;;;;0.54;90.35;95920.06;4996233;28;19983;-76
2021/12/07 04:17:24;;;;;;;;;;;;;;;0.56;90.25;95922.47;5002834;28;19955;-77
2021/12/07 04:19:50;;;;;;;;;;;;;;;0.57;90.31;95917.16;5013781;28;19956;-77
2021/12/07 04:22:16;;;;;;;;;;;;;;;0.57;90.25;95924.91;5013735;28;20374;-77
2021/12/07 04:24:42;;;;;;;;;;;;;;;0.57;90.26;95918.94;5013448;28;20444;-77
2021/12/07 04:27:08;;;;;;;;;;;;;;;0.57;90.10;95929.28;5013745;28;19974;-77
2021/12/07 04:29:34;;;;;;;;;;;;;;;0.56;89.94;95922.47;5013949;28;20006;-77
2021/12/07 04:32:00;;;;;;;;;;;;;;;0.56;89.76;95920.69;5013815;28;19953;-77
2021/12/07 04:34:25;;;;;;;;;;;;;;;0.55;89.21;95921.69;5013600;28;19971;-77
2021/12/07 04:36:51;;;;;;;;;;;;;;;0.54;88.99;95930.38;4996114;28;20045;-77
2021/12/07 04:39:17;;;;;;;;;;;;;;;0.55;89.12;95936.38;5013298;28;20410;-77
2021/12/07 04:41:46;;;;;;;;;;;;;;;0.55;89.29;95934.59;5013914;28;19966;-77
2021/12/07 04:44:12;;;;;;;;;;;;;;;0.53;90.14;95930.56;5013168;28;20355;-77
2021/12/07 04:46:46;;;;;;;;;;;;;;;0.50;90.42;95928.31;5015923;28;19968;-76
2021/12/07 04:57:43;;;;;;;;;;;;;;;0.49;89.28;95958.47;5017346;28;19957;-76
2021/12/07 05:00:18;;;;;;;;;;;;;;;0.50;89.53;95962.66;5010978;28;19973;-76
2021/12/07 05:02:52;;;;;;;;;;;;;;;0.48;89.54;95962.00;5016658;28;19957;-75
2021/12/07 05:05:20;;;;;;;;;;;;;;;0.50;89.71;95967.00;5017441;28;19953;-79
2021/12/07 05:07:50;;;;;;;;;;;;;;;0.50;90.08;95993.59;5017028;28;19956;-77
2021/12/07 05:39:35;;;;;;;;;;;;;;;0.43;93.94;96013.31;5016641;28;19962;-75
2021/12/07 05:42:01;;;;;;;;;;;;;;;0.45;94.94;96013.94;4998826;28;19964;-75
2021/12/07 05:44:27;;;;;;;;;;;;;;;0.47;95.00;96016.38;5016429;28;19973;-76
2021/12/07 05:46:53;;;;;;;;;;;;;;;0.47;94.87;96027.47;5016069;28;19955;-76
2021/12/07 05:49:19;;;;;;;;;;;;;;;0.50;94.68;96032.31;4998601;28;19947;-77
2021/12/07 05:51:45;;;;;;;;;;;;;;;0.52;95.51;96032.16;4998636;28;19961;-79
2021/12/07 05:54:11;;;;;;;;;;;;;;;0.53;95.05;96038.94;5016120;28;19954;-77
2021/12/07 05:56:37;;;;;;;;;;;;;;;0.55;94.88;96035.22;4998587;28;19978;-79
2021/12/07 05:59:03;;;;;;;;;;;;;;;0.67;98.30;96037.44;4997931;28;20407;-78
2021/12/07 06:01:29;;;;;;;;;;;;;;;0.86;100.00;96046.56;5015773;28;20329;-79
2021/12/07 06:03:55;;;;;;;;;;;;;;;1.08;100.00;96055.38;5002653;28;19963;-79
2021/12/07 06:06:21;;;;;;;;;;;;;;;1.28;100.00;96056.56;5015804;28;19953;-79
2021/12/07 06:08:50;;;;;;;;;;;;;;;1.49;100.00;96050.81;5015776;28;19965;-79
2021/12/07 06:11:15;;;;;;;;;;;;;;;1.60;99.75;96053.00;5015647;28;20468;-78
2021/12/07 06:13:41;;;;;;;;;;;;;;;1.57;94.78;96055.09;5015864;28;19958;-79
2021/12/07 06:16:08;;;;;;;;;;;;;;;1.50;93.16;96059.34;5015315;28;20034;-78
2021/12/07 06:18:35;;;;;;;;;;;;;;;1.41;92.38;96049.06;5015561;28;19964;-78
2021/12/07 06:21:02;;;;;;;;;;;;;;;1.34;91.99;96057.66;4998063;28;19957;-78
2021/12/07 06:23:28;;;;;;;;;;;;;;;1.24;92.02;96052.72;5015281;28;19966;-78
2021/12/07 06:25:56;;;;;;;;;;;;;;;1.18;92.34;96053.38;4998030;28;19965;-78
2021/12/07 06:28:22;;;;;;;;;;;;;;;1.08;92.70;96061.34;5015534;28;19956;-78
2021/12/07 06:30:48;;;;;;;;;;;;;;;1.02;92.71;96062.00;5015654;28;20451;-79
2021/12/07 06:33:18;;;;;;;;;;;;;;;0.99;92.95;96062.34;5015194;28;19952;-78
2021/12/07 06:35:44;;;;;;;;;;;;;;;0.92;92.64;96058.81;5015590;28;19954;-78
2021/12/07 06:38:10;;;;;;;;;;;;;;;0.81;93.10;96057.38;5015007;28;19997;-78
2021/12/07 06:40:37;;;;;;;;;;;;;;;0.76;93.02;96065.63;5015411;28;19954;-78
2021/12/07 06:43:03;;;;;;;;;;;;;;;0.76;92.71;96070.00;5015076;28;19967;-78
2021/12/07 06:45:29;;;;;;;;;;;;;;;0.77;92.67;96074.19;5015151;28;20331;-79
2021/12/07 06:47:55;;;;;;;;;;;;;;;0.79;92.61;96077.41;5014889;28;19958;-78
2021/12/07 06:50:21;;;;;;;;;;;;;;;0.81;92.54;96081.41;5014784;28;19963;-79
2021/12/07 06:52:47;;;;;;;;;;;;;;;0.80;92.17;96081.59;5014872;28;19956;-78
2021/12/07 06:55:13;;;;;;;;;;;;;;;0.79;92.23;96079.97;5014646;28;19957;-78
2021/12/07 06:57:39;;;;;;;;;;;;;;;0.80;92.22;96084.97;4997238;28;20021;-78
2021/12/07 07:00:07;;;;;;;;;;;;;;;0.81;92.12;96094.31;4997550;28;19999;-78
2021/12/07 07:02:33;;;;;;;;;;;;;;;0.83;92.42;96101.13;5014666;28;20324;-78
2021/12/07 07:04:59;;;;;;;;;;;;;;;0.83;92.40;96104.50;4997294;28;20002;-78
2021/12/07 07:07:25;;;;;;;;;;;;;;;0.84;92.58;96107.88;5014589;28;20054;-78
2021/12/07 07:09:51;;;;;;;;;;;;;;;0.85;92.37;96110.28;4996414;28;20005;-78
2021/12/07 07:12:17;;;;;;;;;;;;;;;0.85;92.22;96106.91;4997059;28;19963;-78
2021/12/07 07:14:43;;;;;;;;;;;;;;;0.83;92.09;96098.53;5014915;28;19969;-78
2021/12/07 07:17:09;;;;;;;;;;;;;;;0.75;92.38;96105.31;5014667;28;19958;-79
2021/12/07 07:19:35;;;;;;;;;;;;;;;0.75;92.58;96120.78;5014358;28;19948;-78
2021/12/07 07:22:02;;;;;;;;;;;;;;;0.76;92.85;96117.25;4996715;28;20305;-79
2021/12/07 07:24:29;;;;;;;;;;;;;;;0.80;92.80;96113.38;5005727;28;19976;-79
2021/12/07 07:26:55;;;;;;;;;;;;;;;0.83;92.43;96126.94;5014455;28;20415;-78
2021/12/07 07:29:21;;;;;;;;;;;;;;;0.86;92.45;96131.75;5014376;28;19997;-78
2021/12/07 07:31:47;;;;;;;;;;;;;;;0.89;92.45;96131.44;5014413;28;20518;-79
2021/12/07 07:34:13;;;;;;;;;;;;;;;0.92;92.16;96141.41;5014192;28;20023;-78
2021/12/07 07:36:39;;;;;;;;;;;;;;;0.96;92.34;96140.91;4996575;28;20005;-78
2021/12/07 07:39:05;;;;;;;;;;;;;;;1.00;92.33;96143.97;4996671;28;19961;-79
2021/12/07 07:41:31;;;;;;;;;;;;;;;1.02;92.07;96145.41;5014043;28;20320;-78
2021/12/07 07:43:57;;;;;;;;;;;;;;;1.04;91.67;96149.63;4996428;28;19988;-78
2021/12/07 07:46:22;;;;;;;;;;;;;;;1.01;91.69;96141.25;5013883;28;20392;-78
2021/12/07 07:48:48;;;;;;;;;;;;;;;1.07;91.95;96154.44;4996396;28;20413;-78
2021/12/07 07:51:17;;;;;;;;;;;;;;;1.13;91.53;96162.34;5013965;28;19955;-79
2021/12/07 07:53:43;;;;;;;;;;;;;;;1.16;90.95;96161.22;5014114;28;19950;-79
2021/12/07 07:56:09;;;;;;;;;;;;;;;1.19;90.99;96158.28;5014001;28;19963;-79
2021/12/07 07:58:35;;;;;;;;;;;;;;;1.19;91.03;96172.00;5013930;28;19966;-79
2021/12/07 08:01:04;;;;;;;;;;;;;;;1.18;90.58;96173.00;5013855;28;20430;-78
2021/12/07 08:03:32;;;;;;;;;;;;;;;1.19;90.43;96177.19;5014058;28;19975;-79
2021/12/07 08:05:58;;;;;;;;;;;;;;;1.19;90.24;96190.09;4996158;28;19958;-78
2021/12/07 08:08:24;;;;;;;;;;;;;;;1.20;90.28;96183.16;5013767;28;19963;-79
2021/12/07 08:10:50;;;;;;;;;;;;;;;1.21;90.07;96182.97;4996359;28;19989;-79
2021/12/07 08:13:16;;;;;;;;;;;;;;;1.23;89.91;96193.16;5013924;28;20407;-79
2021/12/07 08:15:44;;;;;;;;;;;;;;;1.25;89.85;96191.22;5014032;28;20407;-82
2021/12/07 08:18:11;;;;;;;;;;;;;;;1.27;89.63;96191.84;5013629;28;19954;-79
2021/12/07 08:20:37;;;;;;;;;;;;;;;1.28;89.19;96190.91;5014452;28;19965;-80
2021/12/07 08:23:04;;;;;;;;;;;;;;;1.37;89.13;96200.22;5018120;28;19975;-82
2021/12/07 08:25:31;;;;;;;;;;;;;;;1.68;89.51;96196.06;5017635;28;20482;-81
2021/12/07 08:27:58;;;;;;;;;;;;;;;2.01;88.90;96179.41;5000515;28;19952;-81
2021/12/07 08:30:24;;;;;;;;;;;;;;;2.33;87.80;96187.97;5000164;28;20332;-82
2021/12/07 08:32:50;;;;;;;;;;;;;;;2.64;86.71;96179.31;5017654;28;19960;-81
2021/12/07 08:35:16;;;;;;;;;;;;;;;2.91;85.89;96182.34;5000008;28;20041;-82
2021/12/07 08:37:49;;;;;;;;;;;;;;;3.14;85.66;96177.09;5018078;28;19958;-79
2021/12/07 08:40:21;;;;;;;;;;;;;;;3.33;84.82;96173.97;4999987;28;19964;-81
2021/12/07 08:42:48;;;;;;;;;;;;;;;3.50;83.90;96179.75;4985669;28;20433;-80
2021/12/07 08:45:14;;;;;;;;;;;;;;;3.58;83.12;96171.09;4999722;28;19963;-82
2021/12/07 08:47:40;;;;;;;;;;;;;;;3.63;82.30;96167.00;4999747;28;20314;-78
2021/12/07 08:50:17;;;;;;;;;;;;;;;3.59;81.65;96178.72;4999677;28;19949;-78
2021/12/07 08:52:45;;;;;;;;;;;;;;;3.58;81.90;96184.06;5017454;28;20307;-78
2021/12/07 09:00:26;;;;;;;;;;;;;;;3.49;81.29;96177.38;5008901;28;19954;-84
2021/12/07 09:02:52;;;;;;;;;;;;;;;3.46;81.01;96178.50;4999547;28;20343;-81
2021/12/07 09:05:18;;;;;;;;;;;;;;;3.60;82.91;96182.09;4999381;28;19969;-81
2021/12/07 09:07:45;;;;;;;;;;;;;;;3.85;82.89;96180.00;4983218;28;19951;-81
2021/12/07 09:10:11;;;;;;;;;;;;;;;4.13;82.42;96189.69;4999474;28;20431;-80
2021/12/07 09:12:37;;;;;;;;;;;;;;;4.38;81.78;96195.34;4999232;28;19989;-78
2021/12/07 09:15:04;;;;;;;;;;;;;;;4.65;81.30;96188.59;5017069;28;19969;-77
2021/12/07 09:17:30;;;;;;;;;;;;;;;4.82;78.68;96191.72;5016574;28;19972;-77
2021/12/07 09:19:56;;;;;;;;;;;;;;;4.99;78.63;96193.06;5017034;28;20322;-78
2021/12/07 09:22:22;;;;;;;;;;;;;;;5.12;76.90;96202.75;5016701;28;20049;-79
2021/12/07 09:24:50;;;;;;;;;;;;;;;4.91;77.24;96198.38;5016426;28;19973;-76
2021/12/07 09:27:16;;;;;;;;;;;;;;;4.64;77.94;96197.38;5016537;28;19958;-80
2021/12/07 09:29:43;;;;;;;;;;;;;;;4.32;78.45;96207.25;5016424;28;20418;-79
2021/12/07 09:32:09;;;;;;;;;;;;;;;4.10;80.08;96203.03;5015642;28;19965;-77
2021/12/07 09:34:35;;;;;;;;;;;;;;;4.11;81.04;96204.63;4998809;28;19951;-77
2021/12/07 09:37:01;;;;;;;;;;;;;;;4.30;81.26;96209.22;4998872;28;19959;-79
2021/12/07 09:39:27;;;;;;;;;;;;;;;4.50;81.04;96206.84;5016237;28;19969;-84
2021/12/07 09:41:53;;;;;;;;;;;;;;;4.49;78.80;96197.44;5016233;28;19987;-83
2021/12/07 09:44:19;;;;;;;;;;;;;;;4.27;78.74;96210.41;4998598;28;19982;-82
2021/12/07 09:46:51;;;;;;;;;;;;;;;4.25;79.85;96216.78;4982691;28;19959;-79
2021/12/07 09:49:20;;;;;;;;;;;;;;;4.29;78.92;96215.41;5016778;28;19962;-79
2021/12/07 09:51:46;;;;;;;;;;;;;;;4.43;80.63;96218.94;5016262;28;19954;-80
2021/12/07 09:54:12;;;;;;;;;;;;;;;4.62;79.75;96220.94;5015946;28;19978;-78
2021/12/07 09:56:38;;;;;;;;;;;;;;;4.73;78.94;96218.84;5016630;28;19978;-76
2021/12/07 09:59:05;;;;;;;;;;;;;;;4.63;78.44;96219.94;5016369;28;20319;-78
2021/12/07 10:01:32;;;;;;;;;;;;;;;4.41;77.65;96216.56;4998544;28;19954;-78
2021/12/07 10:03:57;;;;;;;;;;;;;;;4.19;78.57;96209.72;5016109;28;19978;-80
2021/12/07 10:06:24;;;;;;;;;;;;;;;3.99;78.20;96212.06;5015795;28;19954;-80
2021/12/07 10:08:50;;;;;;;;;;;;;;;3.85;79.80;96211.13;4998268;28;19972;-77
2021/12/07 10:11:16;;;;;;;;;;;;;;;3.91;80.39;96192.25;4997871;28;19977;-78
2021/12/07 10:13:44;;;;;;;;;;;;;;;4.18;80.37;96193.34;4998094;28;20304;-77
2021/12/07 10:16:11;;;;;;;;;;;;;;;4.50;78.65;96183.47;5015794;28;20007;-77
2021/12/07 10:18:39;;;;;;;;;;;;;;;4.77;76.03;96179.31;5015519;28;19955;-79
2021/12/07 10:21:14;;;;;;;;;;;;;;;4.87;74.06;96176.38;5015429;28;19953;-79
2021/12/07 10:23:42;;;;;;;;;;;;;;;4.81;71.99;96169.34;5016361;28;19950;-78
2021/12/07 10:26:08;;;;;;;;;;;;;;;4.90;75.28;96180.41;5015366;28;19953;-79
2021/12/07 10:28:36;;;;;;;;;;;;;;;5.10;73.88;96170.94;5015217;28;20095;-79
2021/12/07 10:31:22;;;;;;;;;;;;;;;5.28;71.86;96160.06;5015403;28;19952;-79
2021/12/07 10:33:52;;;;;;;;;;;;;;;5.38;73.23;96168.31;5014850;28;19953;-78
2021/12/07 10:36:23;;;;;;;;;;;;;;;5.49;69.41;96133.97;5015142;28;19969;-79
2021/12/07 10:39:08;;;;;;;;;;;;;;;5.46;71.89;96162.97;5015153;28;19954;-79
2021/12/07 10:41:35;;;;;;;;;;;;;;;5.64;72.28;96159.84;5015228;28;19967;-78
2021/12/07 10:44:12;;;;;;;;;;;;;;;5.76;71.00;96141.88;4997416;28;20414;-79
2021/12/07 10:47:05;;;;;;;;;;;;;;;5.90;72.88;96153.97;5014875;28;19958;-78
2021/12/07 10:49:43;;;;;;;;;;;;;;;5.94;70.74;96138.72;5011253;28;19946;-76
2021/12/07 10:52:20;;;;;;;;;;;;;;;5.98;70.35;96134.78;5015136;28;19956;-77
2021/12/07 10:55:05;;;;;;;;;;;;;;;6.02;67.79;96107.34;5014961;28;19950;-78
2021/12/07 10:57:39;;;;;;;;;;;;;;;5.94;69.31;96115.31;5014918;28;19959;-79
2021/12/07 11:00:07;;;;;;;;;;;;;;;6.00;71.05;96121.56;5014726;28;20299;-79
2021/12/07 11:02:36;;;;;;;;;;;;;;;6.03;67.93;96095.16;5015023;28;19983;-79
2021/12/07 11:05:05;;;;;;;;;;;;;;;6.02;70.19;96114.38;5014510;28;19975;-78
2021/12/07 11:07:31;;;;;;;;;;;;;;;6.08;69.32;96110.97;5015238;28;19956;-79
2021/12/07 11:10:21;;;;;;;;;;;;;;;5.82;67.95;96106.50;5014607;28;19979;-78
2021/12/07 11:12:52;;;;;;;;;;;;;;;5.73;70.75;96137.06;5014795;28;19959;-78
2021/12/07 11:15:24;;;;;;;;;;;;;;;5.81;71.57;96133.50;5014714;28;19949;-79
2021/12/07 11:17:51;;;;;;;;;;;;;;;5.93;69.72;96111.13;5014607;28;19950;-79
2021/12/07 11:20:17;;;;;;;;;;;;;;;5.85;68.52;96113.88;5014618;28;19972;-79
2021/12/07 11:22:50;;;;;;;;;;;;;;;5.81;72.23;96121.28;5014478;28;19962;-78
2021/12/07 11:31:14;;;;;;;;;;;;;;;5.67;68.90;96104.84;5014752;28;20298;-79
2021/12/07 11:33:40;;;;;;;;;;;;;;;5.65;66.35;96074.81;4996886;28;19960;-79
2021/12/07 11:36:21;;;;;;;;;;;;;;;5.49;66.06;96081.94;5014523;28;20336;-79
2021/12/07 11:38:51;;;;;;;;;;;;;;;5.26;67.91;96087.47;5014015;28;19959;-79
2021/12/07 11:41:25;;;;;;;;;;;;;;;5.07;66.36;96077.78;5014160;28;20422;-78
2021/12/07 11:43:54;;;;;;;;;;;;;;;5.04;68.13;96098.94;5014148;28;19955;-78
2021/12/07 11:46:21;;;;;;;;;;;;;;;4.97;67.71;96085.09;5013931;28;20330;-78
2021/12/07 11:48:48;;;;;;;;;;;;;;;4.90;69.32;96084.28;5014028;28;19954;-78
2021/12/07 11:51:16;;;;;;;;;;;;;;;4.81;68.82;96075.84;5013969;28;20394;-78
2021/12/07 11:53:43;;;;;;;;;;;;;;;4.75;68.66;96066.19;5014425;28;19952;-78
2021/12/07 11:56:09;;;;;;;;;;;;;;;4.81;69.35;96066.25;5013208;28;19957;-79
2021/12/07 11:58:35;;;;;;;;;;;;;;;4.90;67.52;96048.69;5014207;28;20432;-78
2021/12/07 12:01:05;;;;;;;;;;;;;;;5.02;69.58;96064.56;5013972;28;19958;-78
2021/12/07 12:03:34;;;;;;;;;;;;;;;5.09;67.65;96035.00;5013793;28;19958;-78
2021/12/07 12:06:00;;;;;;;;;;;;;;;5.21;68.84;96053.44;5013660;28;20443;-79
2021/12/07 12:08:27;;;;;;;;;;;;;;;5.32;69.00;96049.50;5013853;28;19955;-79
2021/12/07 12:11:13;;;;;;;;;;;;;;;5.41;69.91;96056.13;5013611;28;19988;-77
2021/12/07 12:13:49;;;;;;;;;;;;;;;5.51;68.80;96045.34;4973778;28;20431;-79
2021/12/07 12:16:21;;;;;;;;;;;;;;;5.47;66.61;96023.34;4996089;28;19964;-82
2021/12/07 12:18:47;;;;;;;;;;;;;;;5.34;65.83;96016.31;5002983;28;19957;-79
2021/12/07 12:21:17;;;;;;;;;;;;;;;5.21;66.55;96029.25;5014189;28;20031;-79
2021/12/07 12:23:52;;;;;;;;;;;;;;;5.23;69.13;96040.28;5013360;28;19954;-79
2021/12/07 12:26:23;;;;;;;;;;;;;;;5.32;70.51;96044.28;4995994;28;19971;-79
2021/12/07 12:28:52;;;;;;;;;;;;;;;5.41;68.52;96021.53;4996143;28;19944;-79
2021/12/07 12:31:19;;;;;;;;;;;;;;;5.44;69.14;96032.34;5014150;28;19952;-79
2021/12/07 12:33:47;;;;;;;;;;;;;;;5.45;67.71;96017.53;4995936;28;19953;-79
2021/12/07 12:36:14;;;;;;;;;;;;;;;5.50;67.04;96020.31;5013736;28;19955;-78
2021/12/07 12:38:46;;;;;;;;;;;;;;;5.57;67.73;96021.16;5013336;28;20333;-79
2021/12/07 12:41:13;;;;;;;;;;;;;;;5.53;68.06;96019.16;4996323;28;20303;-79
2021/12/07 12:43:50;;;;;;;;;;;;;;;5.47;67.58;96015.53;5013652;28;19960;-79
2021/12/07 12:46:19;;;;;;;;;;;;;;;5.29;67.02;96008.25;4979652;28;19965;-79
2021/12/07 12:48:50;;;;;;;;;;;;;;;5.15;67.54;96020.44;4995184;28;19961;-79
2021/12/07 12:51:17;;;;;;;;;;;;;;;5.04;68.17;96019.19;5013118;28;19954;-79
2021/12/07 12:53:44;;;;;;;;;;;;;;;4.99;70.05;96029.34;4995686;28;19955;-79
2021/12/07 12:56:17;;;;;;;;;;;;;;;4.88;66.97;96006.50;5013390;28;19956;-79
2021/12/07 12:58:45;;;;;;;;;;;;;;;4.85;66.97;96001.69;5013326;28;19954;-79
2021/12/07 13:01:14;;;;;;;;;;;;;;;4.99;69.31;96012.97;5013236;28;19953;-79
2021/12/07 13:03:45;;;;;;;;;;;;;;;5.07;66.23;95977.22;5013679;28;19954;-79
2021/12/07 13:06:14;;;;;;;;;;;;;;;5.35;86.29;96010.09;5013154;28;19975;-79
2021/12/07 13:08:54;;;;;;;;;;;;;;;6.06;74.97;95998.44;4997733;28;19960;-79
2021/12/07 13:11:35;;;;;;;;;;;;;;;6.25;66.35;95958.56;5016895;28;19990;-79
2021/12/07 13:14:03;;;;;;;;;;;;;;;6.08;65.14;95952.19;5016779;28;19968;-79
2021/12/07 13:16:33;;;;;;;;;;;;;;;5.88;66.07;95965.97;5017007;28;19949;-79
2021/12/07 13:19:00;;;;;;;;;;;;;;;5.69;65.87;95956.34;4985810;28;19954;-79
2021/12/07 13:21:27;;;;;;;;;;;;;;;5.56;65.53;95956.34;5016700;28;19950;-78
2021/12/07 13:24:02;;;;;;;;;;;;;;;5.48;66.22;95965.13;4999404;28;19961;-79
2021/12/07 13:26:32;;;;;;;;;;;;;;;5.45;66.40;95963.72;5016440;28;19970;-78
2021/12/07 13:29:11;;;;;;;;;;;;;;;5.45;65.91;95955.13;5016441;28;19956;-79
2021/12/07 13:31:38;;;;;;;;;;;;;;;5.47;65.34;95940.91;5017061;28;19957;-79
2021/12/07 13:34:04;;;;;;;;;;;;;;;5.50;66.83;95957.91;5008395;28;20340;-79
2021/12/07 13:36:30;;;;;;;;;;;;;;;5.49;67.31;95951.91;4982726;28;19993;-80
2021/12/07 13:39:05;;;;;;;;;;;;;;;5.42;64.35;95932.91;5016562;28;20034;-79
2021/12/07 13:41:32;;;;;;;;;;;;;;;5.31;63.95;95923.06;4998789;28;19954;-78
2021/12/07 13:43:58;;;;;;;;;;;;;;;5.56;79.49;95964.94;4999031;28;19959;-79
2021/12/07 13:46:27;;;;;;;;;;;;;;;5.98;62.81;95858.88;4998584;28;19976;-78
2021/12/07 13:49:13;;;;;;;;;;;;;;;5.97;61.29;95851.31;5016530;28;19962;-79
2021/12/07 13:51:41;;;;;;;;;;;;;;;5.87;64.14;95878.50;5009814;28;19967;-78
2021/12/07 13:54:14;;;;;;;;;;;;;;;5.79;63.25;95870.88;5015939;28;20429;-78
2021/12/07 13:56:40;;;;;;;;;;;;;;;5.66;64.94;95874.31;5016132;28;19958;-78
2021/12/07 13:59:07;;;;;;;;;;;;;;;5.59;65.87;95883.91;5015577;28;20009;-78
2021/12/07 14:01:35;;;;;;;;;;;;;;;5.46;65.00;95873.53;4998428;28;19959;-78
2021/12/07 14:04:02;;;;;;;;;;;;;;;5.27;62.66;95857.69;5015880;28;19956;-78
2021/12/07 14:06:28;;;;;;;;;;;;;;;5.14;62.79;95862.88;4998337;28;19969;-78
2021/12/07 14:09:01;;;;;;;;;;;;;;;5.09;67.09;95899.06;5015731;28;20042;-78
2021/12/07 14:11:27;;;;;;;;;;;;;;;5.05;66.98;95896.03;5015980;28;19986;-78
2021/12/07 14:13:53;;;;;;;;;;;;;;;5.03;65.70;95884.25;5015840;28;19965;-77
2021/12/07 14:16:22;;;;;;;;;;;;;;;4.88;61.46;95837.66;4998285;28;19967;-78
2021/12/07 14:18:48;;;;;;;;;;;;;;;4.73;65.53;95881.19;5015083;28;19942;-78
2021/12/07 14:21:14;;;;;;;;;;;;;;;4.71;66.89;95875.38;4982126;28;19960;-76
2021/12/07 14:23:41;;;;;;;;;;;;;;;4.61;64.71;95860.16;5015615;28;19959;-77
2021/12/07 14:26:09;;;;;;;;;;;;;;;4.49;63.87;95844.31;5015336;28;20338;-77
2021/12/07 14:28:41;;;;;;;;;;;;;;;4.39;64.77;95854.25;4997756;28;19970;-77
2021/12/07 14:31:10;;;;;;;;;;;;;;;4.33;65.97;95852.47;4997964;28;19949;-79
2021/12/07 14:33:37;;;;;;;;;;;;;;;4.66;77.00;95878.53;5014906;28;20421;-77
2021/12/07 14:36:04;;;;;;;;;;;;;;;4.79;67.71;95823.25;5015130;28;19949;-77
2021/12/07 14:38:34;;;;;;;;;;;;;;;4.73;68.06;95837.03;5015205;28;19952;-79
2021/12/07 14:41:01;;;;;;;;;;;;;;;4.62;66.86;95820.19;5007206;28;20014;-77
2021/12/07 14:43:27;;;;;;;;;;;;;;;4.51;64.31;95798.19;5015272;28;19957;-77
2021/12/07 14:45:57;;;;;;;;;;;;;;;4.37;66.53;95822.53;5014933;28;19970;-77
2021/12/07 14:48:26;;;;;;;;;;;;;;;4.25;65.84;95817.88;5015072;28;19946;-77
2021/12/07 14:50:53;;;;;;;;;;;;;;;4.15;67.63;95827.81;4997779;28;19963;-77